Camp Pohakuloa, Hawaii
Current Conditions -  °F | °C
As of 7:56 AM on Friday 28 Nov 2014 (Local Time) from PHSF Reporting Station
Clear Clear  
Wind Chill: 58°   Ceiling: Unl
Heat Index: 58°   Visibility: 10mi
Dew Point: 49°   Wind: 8mph
Humidity: 71%   Direction: 120°ESE
Pressure: 30.32"   Gusts: 20mph
Location:  19.76°N, 155.56°W
Report Text: PHSF 281756Z AUTO 12007G17KT 10SM CLR 14/09 A3032 RMK AO2 SLP167 T01440093 10144 20057 51007 $
Loading
Personal Weather Stations






























Interactive Weather Map New forecast layout! Learn more

10-Day Weather Forecast

Advertisements
Track Severe Weather on mobile